hero-logo

Top 15 Knowers of DHI Dr Horton Inc - 2017-07-21

Rank Fund Result (K)
1 Mik Capital Llc $11,926
2 Carlson Capital L P $2,329
3 Sg Capital Management Llc $1,576
4 Avalon Advisors Llc $1,350
5 Guardian Capital Lp $1,278
6 Grs Advisors Llc $828
7 Raymond James Associates $803
8 Holland Capital Management Llc $773
9 Fdo Partners Llc $673
10 Blair William Co Il $565
11 Envestnet Asset Management Inc $532
12 Squarepoint Ops Llc $348
13 Aviance Capital Management Llc $248
14 Folger Hill Asset Management Lp $190
15 Scotia Capital Inc $185
Price Chart and News From Google Finance for DHI Dr Horton Inc
Owner Date Shares Change Price Change Result (K)
Acrospire Investment Management Llc 2017-03-31 1,300 $5.98 $7
Advantage Investment Management Llc 2017-03-31 -1,110 $5.98 $-6
Ahl Partners Llp 2017-03-31 30,090 $5.98 $179
Allsquare Wealth Management Llc 2017-03-31 949 $5.98 $5
Amalgamated Bank 2017-03-31 -5,401 $5.98 $-32
Americafirst Capital Management Llc 2017-03-31 10,920 $5.98 $65
Ancora Advisors Llc 2017-03-31 -500 $5.98 $-2
Aperio Group Llc 2017-03-31 2,320 $5.98 $13
Archford Capital Strategies Llc 2017-03-31 -921 $5.98 $-5
A R T Advisors Llc 2017-03-31 -117,200 $5.98 $-700
Assetmark Inc 2017-03-31 220 $5.98 $1
Avalon Advisors Llc 2017-03-31 225,867 $5.98 $1,350
Aviance Capital Management Llc 2017-03-31 41,505 $5.98 $248
Balentine Llc 2017-03-31 116 $5.98 $0
Blair William Co Il 2017-03-31 94,553 $5.98 $565
Bokf Na 2017-03-31 334 $5.98 $1
Boston Private Wealth Llc 2017-03-31 -300 $5.98 $-1
Bowling Portfolio Management Llc 2017-03-31 -147,696 $5.98 $-883
Bridgeway Capital Management Inc 2017-03-31 -67,900 $5.98 $-406
California State Teachers Retirement System 2017-03-31 -30,200 $5.98 $-180
Capstone Investment Advisors Llc 2017-03-31 11,965 $5.98 $71
Carlson Capital L P 2017-03-31 389,600 $5.98 $2,329
Castle Hook Partners Lp 2017-03-31 22,163 $5.98 $132
Cna Financial Corp 2017-03-31 0 $5.98 $0
Cornerstone Capital Management Holdings Llc 2017-03-31 -910 $5.98 $-5
D A Davidson Co 2017-03-31 -174,683 $5.98 $-1,044
Dana Investment Advisors Inc 2017-03-31 -53,324 $5.98 $-318
Davidson Investment Advisors 2017-03-31 -243,174 $5.98 $-1,454
Delphi Management Inc Ma 2017-03-31 698 $5.98 $4
Earnest Partners Llc 2017-03-31 7,578 $5.98 $45
Element Capital Management Llc 2017-03-31 -2,024,764 $5.98 $-12,108
Elkhorn Investments Llc 2017-03-31 -26,889 $5.98 $-160
Ellington Management Group Llc 2017-03-31 -31,700 $5.98 $-189
Envestnet Asset Management Inc 2017-03-31 89,038 $5.98 $532
Fdo Partners Llc 2017-03-31 112,667 $5.98 $673
Fdx Advisors Inc 2017-03-31 883 $5.98 $5
Fieldpoint Private Advisors Inc 2017-03-31 -95,715 $5.98 $-572
First Republic Investment Management Inc 2017-03-31 -1,507 $5.98 $-9
Focused Wealth Management Inc 2017-03-31 -2,450 $5.98 $-14
Folger Hill Asset Management Lp 2017-03-31 31,787 $5.98 $190
Fore Research Management Lp 2017-03-31 20,000 $5.98 $119
Fortaleza Asset Management Inc 2017-03-31 11,360 $5.98 $67
Friess Associates Llc 2017-03-31 -250,169 $5.98 $-1,496
Gagnon Securities Llc 2017-03-31 0 $5.98 $0
Glassman Wealth Services 2017-03-31 4 $5.98 $0
Glg Llc 2017-03-31 -45 $5.98 $0
Goldentree Asset Management Lp 2017-03-31 -233,230 $5.98 $-1,394
Gotham Asset Management Llc 2017-03-31 -56,178 $5.98 $-335
Gratus Capital Llc 2017-03-31 0 $5.98 $0
Group One Trading L P 2017-03-31 -9,816 $5.98 $-58
Grs Advisors Llc 2017-03-31 138,535 $5.98 $828
Gsa Capital Partners Llp 2017-03-31 -68,992 $5.98 $-412
Guardian Capital Lp 2017-03-31 213,783 $5.98 $1,278
Guggenheim Capital Llc 2017-03-31 19,486 $5.98 $116
Highbridge Capital Management Llc 2017-03-31 -1,087,158 $5.98 $-6,501
Highlander Capital Management Llc 2017-03-31 0 $5.98 $0
Holland Capital Management Llc 2017-03-31 129,288 $5.98 $773
Horizon Investment Services Llc 2017-03-31 -1,466 $5.98 $-8
Horizon Kinetics Llc 2017-03-31 -2,871 $5.98 $-17
Ifp Advisors Inc 2017-03-31 -380 $5.98 $-2
Iht Wealth Management Llc 2017-03-31 -305 $5.98 $-1
Intellectus Partners Llc 2017-03-31 0 $5.98 $0
Itau Unibanco Holding S A 2017-03-31 1,170 $5.98 $6
Jane Street Group Llc 2017-03-31 18,980 $5.98 $113
Kelly Lawrence W Associates Inc Ca 2017-03-31 1,302 $5.98 $7
Kentucky Retirement Systems 2017-03-31 -2,839 $5.98 $-16
Kentucky Retirement Systems Insurance Trust Fund 2017-03-31 -1,799 $5.98 $-10
Krilogy Financial Llc 2017-03-31 0 $5.98 $0
Ladenburg Thalmann Financial Services Inc 2017-03-31 -1,466 $5.98 $-8
Laffer Investments 2017-03-31 0 $5.98 $0
Loomis Sayles Co L P 2017-03-31 12,594 $5.98 $75
Marco Investment Management Llc 2017-03-31 -1,300 $5.98 $-7
Marketfield Asset Management Llc 2017-03-31 -68,336 $5.98 $-408
Mason Street Advisors Llc 2017-03-31 536 $5.98 $3
Meadow Creek Investment Management Llc 2017-03-31 -6,896 $5.98 $-41
Mik Capital Llc 2017-03-31 1,994,377 $5.98 $11,926
Neuburgh Advisers Llc 2017-03-31 -9,482 $5.98 $-56
Next Century Growth Investors Llc 2017-03-31 -151,209 $5.98 $-904
Northwestern Mutual Investment Management Company Llc 2017-03-31 29,721 $5.98 $177
Northwestern Mutual Wealth Management Co 2017-03-31 -1,397 $5.98 $-8
Optimum Investment Advisors 2017-03-31 200 $5.98 $1
Paloma Partners Management Co 2017-03-31 -88,225 $5.98 $-527
Parus Finance Uk Ltd 2017-03-31 -81,520 $5.98 $-487
Piedmont Investment Advisors Llc 2017-03-31 -965 $5.98 $-5
Proficio Capital Partners Llc 2017-03-31 136 $5.98 $0
Pt Asset Management Llc 2017-03-31 -2,200 $5.98 $-13
Public Employees Retirement System Of Ohio 2017-03-31 9,587 $5.98 $57
Raymond James Associates 2017-03-31 134,352 $5.98 $803
Redwood Investments Llc 2017-03-31 -61,981 $5.98 $-370
Riverhead Capital Management Llc 2017-03-31 -10,582 $5.98 $-63
Rothschild Asset Management Inc 2017-03-31 24,485 $5.98 $146
Salem Investment Counselors Inc 2017-03-31 -2,350 $5.98 $-14
Schonfeld Strategic Advisors Llc 2017-03-31 10,086 $5.98 $60
Sciencast Management Lp 2017-03-31 -7,301 $5.98 $-43
Scotia Capital Inc 2017-03-31 30,938 $5.98 $185
Secor Capital Advisors Lp 2017-03-31 -286,868 $5.98 $-1,715
Seven Eight Capital Lp 2017-03-31 -98,177 $5.98 $-587
Sg Capital Management Llc 2017-03-31 263,598 $5.98 $1,576
Sowell Financial Services Llc 2017-03-31 -51 $5.98 $0
Squarepoint Ops Llc 2017-03-31 58,311 $5.98 $348
Srs Capital Advisors Inc 2017-03-31 -495 $5.98 $-2
Stifel Financial Corp 2017-03-31 7,540 $5.98 $45
Stonebridge Capital Advisors Llc 2017-03-31 -1,026 $5.98 $-6
Taylor Asset Management Inc 2017-03-31 0 $5.98 $0
Three Corner Global Investors Lp 2017-03-31 -196,700 $5.98 $-1,176
Tributary Capital Management Llc 2017-03-31 -5,000 $5.98 $-29
Two Sigma Securities Llc 2017-03-31 24,172 $5.98 $144
Tyers Asset Management Llc 2017-03-31 -12,068 $5.98 $-72
United Capital Financial Advisers Llc 2017-03-31 5,911 $5.98 $35
Verition Fund Management Llc 2017-03-31 11,896 $5.98 $71
Voloridge Investment Management Llc 2017-03-31 -429,425 $5.98 $-2,567
Walleye Trading Llc 2017-03-31 -19,117 $5.98 $-114